sensor_id;sensor_type;location;lat;lon;timestamp;pressure;altitude;pressure_sealevel;temperature;humidity
29941;BME280;16801;53.562;10.038;2023-02-28T00:01:11;103121.59;;;8.16;48.49
29941;BME280;16801;53.562;10.038;2023-02-28T00:04:32;103124.16;;;8.40;48.43
29941;BME280;16801;53.562;10.038;2023-02-28T00:07:56;103120.50;;;8.61;47.76
29941;BME280;16801;53.562;10.038;2023-02-28T00:11:17;103107.88;;;8.43;48.68
29941;BME280;16801;53.562;10.038;2023-02-28T00:14:38;103121.16;;;8.66;47.60
29941;BME280;16801;53.562;10.038;2023-02-28T00:18:00;103127.09;;;8.34;48.20
29941;BME280;16801;53.562;10.038;2023-02-28T00:21:21;103123.84;;;8.26;48.23
29941;BME280;16801;53.562;10.038;2023-02-28T00:24:43;103123.25;;;8.60;47.48
29941;BME280;16801;53.562;10.038;2023-02-28T00:28:04;103118.25;;;8.71;47.36
29941;BME280;16801;53.562;10.038;2023-02-28T00:31:26;103124.66;;;8.68;47.46
29941;BME280;16801;53.562;10.038;2023-02-28T00:34:48;103120.84;;;8.74;47.39
29941;BME280;16801;53.562;10.038;2023-02-28T00:38:09;103125.59;;;8.67;46.91
29941;BME280;16801;53.562;10.038;2023-02-28T00:41:30;103128.28;;;8.67;47.37
29941;BME280;16801;53.562;10.038;2023-02-28T00:44:51;103120.75;;;8.75;47.11
29941;BME280;16801;53.562;10.038;2023-02-28T00:48:12;103127.03;;;8.36;48.16
29941;BME280;16801;53.562;10.038;2023-02-28T00:51:34;103117.41;;;8.50;47.92
29941;BME280;16801;53.562;10.038;2023-02-28T00:54:55;103122.59;;;8.55;48.18
29941;BME280;16801;53.562;10.038;2023-02-28T00:58:16;103127.69;;;8.61;48.32
29941;BME280;16801;53.562;10.038;2023-02-28T01:01:37;103127.69;;;8.61;48.02
29941;BME280;16801;53.562;10.038;2023-02-28T01:04:59;103127.47;;;8.45;48.15
29941;BME280;16801;53.562;10.038;2023-02-28T01:08:24;103127.44;;;8.47;48.05
29941;BME280;16801;53.562;10.038;2023-02-28T01:11:45;103136.78;;;8.38;48.81
29941;BME280;16801;53.562;10.038;2023-02-28T01:15:09;103132.84;;;8.45;48.76
29941;BME280;16801;53.562;10.038;2023-02-28T01:18:31;103135.75;;;8.41;48.94
29941;BME280;16801;53.562;10.038;2023-02-28T01:21:52;103139.38;;;8.40;48.96
29941;BME280;16801;53.562;10.038;2023-02-28T01:25:14;103140.66;;;8.31;49.19
29941;BME280;16801;53.562;10.038;2023-02-28T01:28:36;103147.88;;;7.87;49.67
29941;BME280;16801;53.562;10.038;2023-02-28T01:31:56;103145.53;;;8.22;49.62
29941;BME280;16801;53.562;10.038;2023-02-28T01:35:19;103139.47;;;8.38;48.96
29941;BME280;16801;53.562;10.038;2023-02-28T01:38:40;103141.06;;;8.42;49.19
29941;BME280;16801;53.562;10.038;2023-02-28T01:42:03;103139.50;;;8.37;49.01
29941;BME280;16801;53.562;10.038;2023-02-28T01:45:28;103137.16;;;8.07;48.79
29941;BME280;16801;53.562;10.038;2023-02-28T01:48:52;103137.19;;;7.64;49.68
29941;BME280;16801;53.562;10.038;2023-02-28T01:52:15;103124.31;;;7.94;49.67
29941;BME280;16801;53.562;10.038;2023-02-28T01:55:38;103132.88;;;7.60;50.10
29941;BME280;16801;53.562;10.038;2023-02-28T01:59:02;103128.16;;;7.67;50.40
29941;BME280;16801;53.562;10.038;2023-02-28T02:02:23;103128.38;;;8.04;48.72
29941;BME280;16801;53.562;10.038;2023-02-28T02:05:45;103137.41;;;8.01;49.16
29941;BME280;16801;53.562;10.038;2023-02-28T02:09:07;103132.59;;;8.09;49.41
29941;BME280;16801;53.562;10.038;2023-02-28T02:12:38;103134.66;;;7.61;49.97
29941;BME280;16801;53.562;10.038;2023-02-28T02:16:14;103117.53;;;7.85;49.04
29941;BME280;16801;53.562;10.038;2023-02-28T02:20:16;103130.94;;;7.85;49.12
29941;BME280;16801;53.562;10.038;2023-02-28T02:24:00;103132.81;;;7.83;49.95
29941;BME280;16801;53.562;10.038;2023-02-28T02:27:28;103131.81;;;7.64;50.42
29941;BME280;16801;53.562;10.038;2023-02-28T02:31:18;103130.19;;;7.60;50.21
29941;BME280;16801;53.562;10.038;2023-02-28T02:35:09;103123.00;;;7.39;50.53
29941;BME280;16801;53.562;10.038;2023-02-28T02:38:35;103128.38;;;7.39;51.08
29941;BME280;16801;53.562;10.038;2023-02-28T02:42:00;103121.03;;;7.21;51.06
29941;BME280;16801;53.562;10.038;2023-02-28T02:45:25;103125.09;;;6.62;52.84
29941;BME280;16801;53.562;10.038;2023-02-28T02:48:50;103126.63;;;6.19;54.16
29941;BME280;16801;53.562;10.038;2023-02-28T02:52:18;103126.66;;;6.42;53.96
29941;BME280;16801;53.562;10.038;2023-02-28T02:55:43;103118.31;;;6.52;54.18
29941;BME280;16801;53.562;10.038;2023-02-28T02:59:09;103127.66;;;6.65;53.10
29941;BME280;16801;53.562;10.038;2023-02-28T03:02:32;103119.06;;;6.06;54.80
29941;BME280;16801;53.562;10.038;2023-02-28T03:05:57;103114.38;;;6.12;54.98
29941;BME280;16801;53.562;10.038;2023-02-28T03:09:19;103124.63;;;5.72;56.16
29941;BME280;16801;53.562;10.038;2023-02-28T03:12:47;103126.47;;;5.70;56.69
29941;BME280;16801;53.562;10.038;2023-02-28T03:20:12;103123.53;;;6.05;55.63
29941;BME280;16801;53.562;10.038;2023-02-28T03:23:41;103131.19;;;5.62;57.06
29941;BME280;16801;53.562;10.038;2023-02-28T03:27:08;103129.41;;;6.16;55.90
29941;BME280;16801;53.562;10.038;2023-02-28T03:30:36;103129.34;;;6.42;54.73
29941;BME280;16801;53.562;10.038;2023-02-28T03:34:04;103132.03;;;6.42;54.72
29941;BME280;16801;53.562;10.038;2023-02-28T03:37:28;103128.47;;;6.17;55.92
29941;BME280;16801;53.562;10.038;2023-02-28T03:40:53;103142.56;;;6.22;55.97
29941;BME280;16801;53.562;10.038;2023-02-28T03:44:21;103131.94;;;6.45;54.57
29941;BME280;16801;53.562;10.038;2023-02-28T03:47:47;103141.28;;;6.34;54.86
29941;BME280;16801;53.562;10.038;2023-02-28T03:51:13;103132.69;;;6.24;55.40
29941;BME280;16801;53.562;10.038;2023-02-28T03:54:41;103134.00;;;6.37;54.86
29941;BME280;16801;53.562;10.038;2023-02-28T03:58:07;103137.72;;;6.09;56.47
29941;BME280;16801;53.562;10.038;2023-02-28T04:01:36;103137.44;;;6.16;57.63
29941;BME280;16801;53.562;10.038;2023-02-28T04:04:59;103136.34;;;5.96;57.89
29941;BME280;16801;53.562;10.038;2023-02-28T04:08:21;103149.13;;;5.88;57.86
29941;BME280;16801;53.562;10.038;2023-02-28T04:11:44;103147.66;;;5.76;58.36
29941;BME280;16801;53.562;10.038;2023-02-28T04:15:06;103143.28;;;6.01;58.10
29941;BME280;16801;53.562;10.038;2023-02-28T04:18:29;103141.25;;;5.82;58.04
29941;BME280;16801;53.562;10.038;2023-02-28T04:21:51;103146.25;;;5.94;57.62
29941;BME280;16801;53.562;10.038;2023-02-28T04:25:13;103147.78;;;5.73;58.30
29941;BME280;16801;53.562;10.038;2023-02-28T04:28:34;103148.28;;;6.12;56.45
29941;BME280;16801;53.562;10.038;2023-02-28T04:31:55;103154.00;;;6.01;56.62
29941;BME280;16801;53.562;10.038;2023-02-28T04:35:18;103146.84;;;5.74;58.17
29941;BME280;16801;53.562;10.038;2023-02-28T04:38:40;103145.94;;;5.75;58.08
29941;BME280;16801;53.562;10.038;2023-02-28T04:42:01;103154.31;;;5.64;58.62
29941;BME280;16801;53.562;10.038;2023-02-28T04:45:22;103149.66;;;5.69;58.44
29941;BME280;16801;53.562;10.038;2023-02-28T04:48:42;103144.97;;;5.78;57.84
29941;BME280;16801;53.562;10.038;2023-02-28T04:52:05;103152.75;;;5.57;58.85
29941;BME280;16801;53.562;10.038;2023-02-28T04:55:27;103153.16;;;5.72;57.84
29941;BME280;16801;53.562;10.038;2023-02-28T04:58:48;103152.94;;;5.79;57.63
29941;BME280;16801;53.562;10.038;2023-02-28T05:02:10;103151.34;;;5.74;58.59
29941;BME280;16801;53.562;10.038;2023-02-28T05:05:31;103151.50;;;5.69;59.15
29941;BME280;16801;53.562;10.038;2023-02-28T05:08:53;103153.38;;;5.65;58.65
29941;BME280;16801;53.562;10.038;2023-02-28T05:12:14;103158.50;;;5.73;58.01
29941;BME280;16801;53.562;10.038;2023-02-28T05:15:35;103167.88;;;5.58;58.91
29941;BME280;16801;53.562;10.038;2023-02-28T05:18:56;103175.13;;;5.26;59.91
29941;BME280;16801;53.562;10.038;2023-02-28T05:22:17;103172.63;;;5.20;60.66
29941;BME280;16801;53.562;10.038;2023-02-28T05:25:39;103173.84;;;5.39;60.71
29941;BME280;16801;53.562;10.038;2023-02-28T05:29:00;103170.47;;;5.32;59.81
29941;BME280;16801;53.562;10.038;2023-02-28T05:32:21;103169.56;;;5.33;59.58
29941;BME280;16801;53.562;10.038;2023-02-28T05:35:42;103171.91;;;5.44;59.50
29941;BME280;16801;53.562;10.038;2023-02-28T05:39:03;103176.88;;;5.27;60.43
29941;BME280;16801;53.562;10.038;2023-02-28T05:42:27;103179.28;;;5.36;60.35
29941;BME280;16801;53.562;10.038;2023-02-28T05:45:48;103170.34;;;5.37;60.22
29941;BME280;16801;53.562;10.038;2023-02-28T05:49:08;103168.78;;;5.30;60.29
29941;BME280;16801;53.562;10.038;2023-02-28T05:52:29;103171.78;;;5.19;60.09
29941;BME280;16801;53.562;10.038;2023-02-28T05:55:50;103178.16;;;5.14;60.96
29941;BME280;16801;53.562;10.038;2023-02-28T05:59:13;103188.84;;;5.14;61.43
29941;BME280;16801;53.562;10.038;2023-02-28T06:02:34;103186.75;;;5.25;60.61
29941;BME280;16801;53.562;10.038;2023-02-28T06:05:55;103185.41;;;5.39;59.97
29941;BME280;16801;53.562;10.038;2023-02-28T06:09:16;103182.97;;;5.32;59.91
29941;BME280;16801;53.562;10.038;2023-02-28T06:12:38;103184.16;;;5.22;61.12
29941;BME280;16801;53.562;10.038;2023-02-28T06:16:02;103186.63;;;5.28;60.42
29941;BME280;16801;53.562;10.038;2023-02-28T06:19:23;103192.72;;;5.04;61.65
29941;BME280;16801;53.562;10.038;2023-02-28T06:22:44;103194.13;;;5.17;61.47
29941;BME280;16801;53.562;10.038;2023-02-28T06:26:06;103203.03;;;4.53;63.51
29941;BME280;16801;53.562;10.038;2023-02-28T06:29:27;103194.19;;;4.51;63.59
29941;BME280;16801;53.562;10.038;2023-02-28T06:32:49;103200.44;;;4.82;62.50
29941;BME280;16801;53.562;10.038;2023-02-28T06:36:11;103201.50;;;5.07;62.09
29941;BME280;16801;53.562;10.038;2023-02-28T06:39:33;103203.81;;;5.21;61.53
29941;BME280;16801;53.562;10.038;2023-02-28T06:42:53;103209.63;;;5.04;62.91
29941;BME280;16801;53.562;10.038;2023-02-28T06:46:15;103197.81;;;5.69;62.32
29941;BME280;16801;53.562;10.038;2023-02-28T06:49:37;103205.84;;;5.71;60.57
29941;BME280;16801;53.562;10.038;2023-02-28T06:52:58;103199.72;;;5.66;59.86
29941;BME280;16801;53.562;10.038;2023-02-28T06:56:20;103209.88;;;5.55;60.27
29941;BME280;16801;53.562;10.038;2023-02-28T06:59:41;103211.81;;;5.21;61.54
29941;BME280;16801;53.562;10.038;2023-02-28T07:03:02;103213.69;;;4.86;62.95
29941;BME280;16801;53.562;10.038;2023-02-28T07:06:24;103217.25;;;4.21;65.48
29941;BME280;16801;53.562;10.038;2023-02-28T07:09:45;103223.88;;;4.72;64.87
29941;BME280;16801;53.562;10.038;2023-02-28T07:13:06;103216.25;;;4.91;64.56
29941;BME280;16801;53.562;10.038;2023-02-28T07:16:28;103217.25;;;4.87;63.83
29941;BME280;16801;53.562;10.038;2023-02-28T07:19:48;103215.47;;;5.18;63.01
29941;BME280;16801;53.562;10.038;2023-02-28T07:23:11;103217.81;;;5.29;62.48
29941;BME280;16801;53.562;10.038;2023-02-28T07:26:32;103220.31;;;5.35;62.50
29941;BME280;16801;53.562;10.038;2023-02-28T07:29:53;103225.91;;;5.26;63.13
29941;BME280;16801;53.562;10.038;2023-02-28T07:33:15;103222.09;;;5.36;63.37
29941;BME280;16801;53.562;10.038;2023-02-28T07:36:36;103208.56;;;5.97;61.17
29941;BME280;16801;53.562;10.038;2023-02-28T07:39:58;103212.63;;;6.10;61.41
29941;BME280;16801;53.562;10.038;2023-02-28T07:43:20;103217.91;;;5.84;61.53
29941;BME280;16801;53.562;10.038;2023-02-28T07:46:41;103213.41;;;6.40;60.04
29941;BME280;16801;53.562;10.038;2023-02-28T07:50:01;103217.09;;;6.62;59.60
29941;BME280;16801;53.562;10.038;2023-02-28T07:53:22;103218.44;;;6.23;60.79
29941;BME280;16801;53.562;10.038;2023-02-28T07:56:44;103221.91;;;6.51;59.99
29941;BME280;16801;53.562;10.038;2023-02-28T08:00:07;103223.66;;;6.00;61.21
29941;BME280;16801;53.562;10.038;2023-02-28T08:03:34;103227.31;;;5.97;61.75
29941;BME280;16801;53.562;10.038;2023-02-28T08:06:55;103228.25;;;5.96;61.77
29941;BME280;16801;53.562;10.038;2023-02-28T08:10:16;103219.81;;;6.34;61.12
29941;BME280;16801;53.562;10.038;2023-02-28T08:13:38;103221.69;;;6.59;59.81
29941;BME280;16801;53.562;10.038;2023-02-28T08:16:59;103217.44;;;7.01;58.30
29941;BME280;16801;53.562;10.038;2023-02-28T08:20:20;103237.63;;;6.88;58.65
29941;BME280;16801;53.562;10.038;2023-02-28T08:23:41;103226.09;;;6.84;58.33
29941;BME280;16801;53.562;10.038;2023-02-28T08:27:02;103227.72;;;6.39;60.29
29941;BME280;16801;53.562;10.038;2023-02-28T08:30:24;103225.84;;;6.92;59.07
29941;BME280;16801;53.562;10.038;2023-02-28T08:33:45;103227.41;;;7.22;57.56
29941;BME280;16801;53.562;10.038;2023-02-28T08:37:08;103226.34;;;7.72;55.94
29941;BME280;16801;53.562;10.038;2023-02-28T08:40:29;103227.16;;;7.51;56.68
29941;BME280;16801;53.562;10.038;2023-02-28T08:43:49;103224.88;;;8.08;55.90
29941;BME280;16801;53.562;10.038;2023-02-28T08:47:11;103227.88;;;8.23;56.23
29941;BME280;16801;53.562;10.038;2023-02-28T08:50:32;103223.44;;;8.00;54.25
29941;BME280;16801;53.562;10.038;2023-02-28T08:53:54;103226.06;;;8.23;53.27
29941;BME280;16801;53.562;10.038;2023-02-28T08:57:15;103231.69;;;8.39;53.26
29941;BME280;16801;53.562;10.038;2023-02-28T09:00:36;103233.50;;;8.17;53.12
29941;BME280;16801;53.562;10.038;2023-02-28T09:03:58;103229.97;;;7.93;53.06
29941;BME280;16801;53.562;10.038;2023-02-28T09:07:21;103234.53;;;8.36;53.47
29941;BME280;16801;53.562;10.038;2023-02-28T09:10:42;103234.91;;;8.03;53.27
29941;BME280;16801;53.562;10.038;2023-02-28T09:14:03;103231.31;;;8.48;51.08
29941;BME280;16801;53.562;10.038;2023-02-28T09:17:24;103232.63;;;7.94;49.68
29941;BME280;16801;53.562;10.038;2023-02-28T09:20:46;103234.19;;;8.43;47.73
29941;BME280;16801;53.562;10.038;2023-02-28T09:24:07;103237.00;;;8.82;46.57
29941;BME280;16801;53.562;10.038;2023-02-28T09:27:28;103244.13;;;7.98;46.83
29941;BME280;16801;53.562;10.038;2023-02-28T09:30:50;103233.34;;;8.63;45.81
29941;BME280;16801;53.562;10.038;2023-02-28T09:34:12;103235.91;;;9.06;46.18
29941;BME280;16801;53.562;10.038;2023-02-28T09:37:34;103242.06;;;8.26;45.28
29941;BME280;16801;53.562;10.038;2023-02-28T09:40:57;103239.78;;;9.19;44.77
29941;BME280;16801;53.562;10.038;2023-02-28T09:44:26;103238.97;;;9.75;42.19
29941;BME280;16801;53.562;10.038;2023-02-28T09:47:50;103248.69;;;8.81;44.13
29941;BME280;16801;53.562;10.038;2023-02-28T09:51:23;103256.22;;;8.93;43.28
29941;BME280;16801;53.562;10.038;2023-02-28T09:54:48;103250.06;;;10.41;41.37
29941;BME280;16801;53.562;10.038;2023-02-28T09:58:16;103245.25;;;10.99;40.02
29941;BME280;16801;53.562;10.038;2023-02-28T10:01:43;103232.50;;;16.43;29.38
29941;BME280;16801;53.562;10.038;2023-02-28T10:05:11;103227.94;;;18.87;26.96
29941;BME280;16801;53.562;10.038;2023-02-28T10:08:36;103221.28;;;21.91;23.09
29941;BME280;16801;53.562;10.038;2023-02-28T10:12:04;103229.81;;;23.38;20.63
29941;BME280;16801;53.562;10.038;2023-02-28T10:15:29;103219.97;;;25.25;18.58
29941;BME280;16801;53.562;10.038;2023-02-28T10:19:01;103219.22;;;26.33;18.34
29941;BME280;16801;53.562;10.038;2023-02-28T10:22:25;103208.66;;;24.14;18.92
29941;BME280;16801;53.562;10.038;2023-02-28T10:25:53;103218.03;;;27.18;16.91
29941;BME280;16801;53.562;10.038;2023-02-28T10:29:17;103229.81;;;20.38;21.47
29941;BME280;16801;53.562;10.038;2023-02-28T10:32:38;103228.38;;;20.53;22.35
29941;BME280;16801;53.562;10.038;2023-02-28T10:36:00;103229.84;;;20.08;21.79
29941;BME280;16801;53.562;10.038;2023-02-28T10:39:35;103227.59;;;18.81;23.71
29941;BME280;16801;53.562;10.038;2023-02-28T10:42:58;103227.19;;;17.11;24.65
29941;BME280;16801;53.562;10.038;2023-02-28T10:46:20;103210.63;;;25.26;18.41
29941;BME280;16801;53.562;10.038;2023-02-28T10:49:47;103214.03;;;28.23;15.72
29941;BME280;16801;53.562;10.038;2023-02-28T10:53:45;103224.31;;;21.61;21.06
29941;BME280;16801;53.562;10.038;2023-02-28T10:57:16;103233.13;;;21.08;22.28
29941;BME280;16801;53.562;10.038;2023-02-28T11:00:38;103223.91;;;22.37;19.04
29941;BME280;16801;53.562;10.038;2023-02-28T11:04:01;103229.72;;;21.80;20.13
29941;BME280;16801;53.562;10.038;2023-02-28T11:07:25;103222.97;;;22.46;18.63
29941;BME280;16801;53.562;10.038;2023-02-28T11:10:53;103217.16;;;25.50;16.87
29941;BME280;16801;53.562;10.038;2023-02-28T11:14:19;103206.44;;;28.31;15.06
29941;BME280;16801;53.562;10.038;2023-02-28T11:17:42;103220.81;;;25.42;15.84
29941;BME280;16801;53.562;10.038;2023-02-28T11:21:05;103217.44;;;22.99;19.02
29941;BME280;16801;53.562;10.038;2023-02-28T11:24:28;103207.38;;;24.50;16.66
29941;BME280;16801;53.562;10.038;2023-02-28T11:27:50;103208.63;;;23.39;17.49
29941;BME280;16801;53.562;10.038;2023-02-28T11:31:17;103215.00;;;22.08;19.29
29941;BME280;16801;53.562;10.038;2023-02-28T11:34:39;103221.03;;;18.41;22.81
29941;BME280;16801;53.562;10.038;2023-02-28T11:38:02;103201.84;;;20.44;21.68
29941;BME280;16801;53.562;10.038;2023-02-28T11:41:44;103192.41;;;23.10;19.11
29941;BME280;16801;53.562;10.038;2023-02-28T11:45:18;103191.72;;;25.62;16.63
29941;BME280;16801;53.562;10.038;2023-02-28T11:48:48;103196.41;;;22.19;18.45
29941;BME280;16801;53.562;10.038;2023-02-28T11:52:20;103180.78;;;22.90;18.95
29941;BME280;16801;53.562;10.038;2023-02-28T11:55:45;103186.19;;;21.85;18.89
29941;BME280;16801;53.562;10.038;2023-02-28T11:59:29;103184.84;;;22.51;18.44
29941;BME280;16801;53.562;10.038;2023-02-28T12:03:03;103183.31;;;22.66;18.34
29941;BME280;16801;53.562;10.038;2023-02-28T12:06:38;103170.63;;;26.08;16.74
29941;BME280;16801;53.562;10.038;2023-02-28T12:10:06;103170.28;;;24.45;16.74
29941;BME280;16801;53.562;10.038;2023-02-28T12:13:46;103163.59;;;27.84;15.37
29941;BME280;16801;53.562;10.038;2023-02-28T12:17:19;103163.50;;;28.27;14.66
29941;BME280;16801;53.562;10.038;2023-02-28T12:20:46;103153.25;;;23.42;18.08
29941;BME280;16801;53.562;10.038;2023-02-28T12:24:26;103140.75;;;27.67;14.64
29941;BME280;16801;53.562;10.038;2023-02-28T12:27:49;103146.69;;;22.48;18.79
29941;BME280;16801;53.562;10.038;2023-02-28T12:31:18;103136.59;;;25.14;15.91
29941;BME280;16801;53.562;10.038;2023-02-28T12:34:44;103135.56;;;26.00;16.02
29941;BME280;16801;53.562;10.038;2023-02-28T12:38:10;103136.09;;;27.24;14.62
29941;BME280;16801;53.562;10.038;2023-02-28T12:41:37;103130.38;;;25.28;16.13
29941;BME280;16801;53.562;10.038;2023-02-28T12:45:03;103116.09;;;26.84;16.15
29941;BME280;16801;53.562;10.038;2023-02-28T12:48:36;103131.00;;;19.52;21.01
29941;BME280;16801;53.562;10.038;2023-02-28T12:51:59;103116.91;;;21.00;19.72
29941;BME280;16801;53.562;10.038;2023-02-28T12:55:25;103109.47;;;21.56;19.52
29941;BME280;16801;53.562;10.038;2023-02-28T12:58:50;103096.34;;;23.58;17.98
29941;BME280;16801;53.562;10.038;2023-02-28T13:06:42;103086.53;;;24.30;17.77
29941;BME280;16801;53.562;10.038;2023-02-28T13:10:06;103084.38;;;23.08;18.24
29941;BME280;16801;53.562;10.038;2023-02-28T13:13:29;103088.84;;;22.58;18.35
29941;BME280;16801;53.562;10.038;2023-02-28T13:17:00;103074.97;;;22.85;18.61
29941;BME280;16801;53.562;10.038;2023-02-28T13:20:24;103077.66;;;21.36;20.07
29941;BME280;16801;53.562;10.038;2023-02-28T13:24:04;103064.47;;;20.66;20.98
29941;BME280;16801;53.562;10.038;2023-02-28T13:27:36;103071.28;;;19.66;22.35
29941;BME280;16801;53.562;10.038;2023-02-28T13:31:04;103066.94;;;20.59;21.34
29941;BME280;16801;53.562;10.038;2023-02-28T13:34:25;103061.94;;;22.44;19.74
29941;BME280;16801;53.562;10.038;2023-02-28T13:37:47;103059.16;;;23.62;18.53
29941;BME280;16801;53.562;10.038;2023-02-28T13:41:41;103055.97;;;24.64;17.03
29941;BME280;16801;53.562;10.038;2023-02-28T13:45:25;103062.16;;;26.21;16.08
29941;BME280;16801;53.562;10.038;2023-02-28T13:48:46;103061.38;;;25.59;15.67
29941;BME280;16801;53.562;10.038;2023-02-28T13:52:12;103066.50;;;24.04;17.29
29941;BME280;16801;53.562;10.038;2023-02-28T13:55:43;103058.94;;;24.30;17.20
29941;BME280;16801;53.562;10.038;2023-02-28T13:59:19;103063.09;;;23.18;18.19
29941;BME280;16801;53.562;10.038;2023-02-28T14:02:58;103072.47;;;20.87;19.63
29941;BME280;16801;53.562;10.038;2023-02-28T14:06:24;103081.00;;;18.38;21.95
29941;BME280;16801;53.562;10.038;2023-02-28T14:09:52;103069.41;;;19.96;20.77
29941;BME280;16801;53.562;10.038;2023-02-28T14:13:44;103067.81;;;21.88;19.30
29941;BME280;16801;53.562;10.038;2023-02-28T14:17:12;103078.25;;;19.40;21.81
29941;BME280;16801;53.562;10.038;2023-02-28T14:20:34;103071.72;;;18.71;21.94
29941;BME280;16801;53.562;10.038;2023-02-28T14:27:58;103069.69;;;19.92;21.22
29941;BME280;16801;53.562;10.038;2023-02-28T14:31:29;103073.59;;;22.02;19.45
29941;BME280;16801;53.562;10.038;2023-02-28T14:35:03;103061.16;;;23.36;18.33
29941;BME280;16801;53.562;10.038;2023-02-28T14:38:39;103065.75;;;23.28;17.91
29941;BME280;16801;53.562;10.038;2023-02-28T14:42:02;103066.63;;;22.69;18.07
29941;BME280;16801;53.562;10.038;2023-02-28T14:45:24;103069.06;;;19.51;21.38
29941;BME280;16801;53.562;10.038;2023-02-28T14:48:48;103072.09;;;20.72;19.98
29941;BME280;16801;53.562;10.038;2023-02-28T14:52:15;103084.84;;;19.87;20.67
29941;BME280;16801;53.562;10.038;2023-02-28T14:55:44;103065.66;;;20.44;20.17
29941;BME280;16801;53.562;10.038;2023-02-28T14:59:18;103075.88;;;19.56;20.89
29941;BME280;16801;53.562;10.038;2023-02-28T15:02:43;103070.31;;;19.07;21.84
29941;BME280;16801;53.562;10.038;2023-02-28T15:06:06;103070.84;;;19.71;21.20
29941;BME280;16801;53.562;10.038;2023-02-28T15:09:28;103062.38;;;19.83;20.43
29941;BME280;16801;53.562;10.038;2023-02-28T15:12:55;103053.38;;;19.53;20.37
29941;BME280;16801;53.562;10.038;2023-02-28T15:16:20;103058.31;;;19.29;21.38
29941;BME280;16801;53.562;10.038;2023-02-28T15:19:43;103049.97;;;18.19;22.38
29941;BME280;16801;53.562;10.038;2023-02-28T15:23:08;103063.03;;;15.70;25.40
29941;BME280;16801;53.562;10.038;2023-02-28T15:26:33;103048.88;;;15.05;26.03
29941;BME280;16801;53.562;10.038;2023-02-28T15:29:56;103048.66;;;15.92;25.05
29941;BME280;16801;53.562;10.038;2023-02-28T15:33:20;103046.97;;;16.02;27.75
29941;BME280;16801;53.562;10.038;2023-02-28T15:36:41;103051.09;;;15.24;27.29
29941;BME280;16801;53.562;10.038;2023-02-28T15:40:12;103049.19;;;13.74;28.71
29941;BME280;16801;53.562;10.038;2023-02-28T15:43:36;103042.66;;;13.37;29.61
29941;BME280;16801;53.562;10.038;2023-02-28T15:47:01;103045.69;;;12.76;30.53
29941;BME280;16801;53.562;10.038;2023-02-28T15:50:23;103050.03;;;13.21;30.51
29941;BME280;16801;53.562;10.038;2023-02-28T15:53:48;103037.47;;;12.92;30.28
29941;BME280;16801;53.562;10.038;2023-02-28T15:57:13;103040.97;;;13.08;31.34
29941;BME280;16801;53.562;10.038;2023-02-28T16:00:36;103045.09;;;12.99;31.34
29941;BME280;16801;53.562;10.038;2023-02-28T16:04:00;103043.72;;;12.22;32.09
29941;BME280;16801;53.562;10.038;2023-02-28T16:07:22;103032.63;;;12.97;31.44
29941;BME280;16801;53.562;10.038;2023-02-28T16:10:43;103040.88;;;12.09;32.69
29941;BME280;16801;53.562;10.038;2023-02-28T16:14:04;103043.72;;;12.22;32.94
29941;BME280;16801;53.562;10.038;2023-02-28T16:17:28;103043.63;;;12.23;32.80
29941;BME280;16801;53.562;10.038;2023-02-28T16:20:50;103039.00;;;12.81;31.71
29941;BME280;16801;53.562;10.038;2023-02-28T16:24:11;103040.19;;;12.77;31.63
29941;BME280;16801;53.562;10.038;2023-02-28T16:27:36;103043.28;;;12.71;31.63
29941;BME280;16801;53.562;10.038;2023-02-28T16:30:57;103050.41;;;13.15;32.12
29941;BME280;16801;53.562;10.038;2023-02-28T16:34:22;103061.06;;;12.47;32.42
29941;BME280;16801;53.562;10.038;2023-02-28T16:37:43;103058.16;;;12.07;33.29
29941;BME280;16801;53.562;10.038;2023-02-28T16:41:05;103057.69;;;12.14;33.51
29941;BME280;16801;53.562;10.038;2023-02-28T16:44:28;103051.16;;;12.18;33.25
29941;BME280;16801;53.562;10.038;2023-02-28T16:47:50;103060.06;;;12.48;33.11
29941;BME280;16801;53.562;10.038;2023-02-28T16:51:15;103057.59;;;12.45;33.46
29941;BME280;16801;53.562;10.038;2023-02-28T16:54:37;103059.56;;;11.98;34.11
29941;BME280;16801;53.562;10.038;2023-02-28T16:57:59;103066.63;;;12.00;34.50
29941;BME280;16801;53.562;10.038;2023-02-28T17:01:20;103062.53;;;12.23;33.81
29941;BME280;16801;53.562;10.038;2023-02-28T17:04:41;103071.50;;;11.33;35.82
29941;BME280;16801;53.562;10.038;2023-02-28T17:08:03;103068.00;;;11.78;34.58
29941;BME280;16801;53.562;10.038;2023-02-28T17:11:25;103076.56;;;12.00;35.25
29941;BME280;16801;53.562;10.038;2023-02-28T17:14:46;103076.50;;;12.45;35.62
29941;BME280;16801;53.562;10.038;2023-02-28T17:18:06;103075.44;;;12.04;35.17
29941;BME280;16801;53.562;10.038;2023-02-28T17:21:29;103084.50;;;12.03;35.79
29941;BME280;16801;53.562;10.038;2023-02-28T17:24:52;103086.34;;;12.02;35.93
29941;BME280;16801;53.562;10.038;2023-02-28T17:28:15;103087.72;;;12.10;35.61
29941;BME280;16801;53.562;10.038;2023-02-28T17:31:36;103095.44;;;11.39;36.03
29941;BME280;16801;53.562;10.038;2023-02-28T17:34:58;103095.56;;;10.89;37.59
29941;BME280;16801;53.562;10.038;2023-02-28T17:38:19;103098.78;;;11.60;36.99
29941;BME280;16801;53.562;10.038;2023-02-28T17:41:43;103095.38;;;11.72;36.53
29941;BME280;16801;53.562;10.038;2023-02-28T17:45:05;103101.53;;;11.58;37.10
29941;BME280;16801;53.562;10.038;2023-02-28T17:48:27;103106.19;;;11.41;36.47
29941;BME280;16801;53.562;10.038;2023-02-28T17:51:48;103107.38;;;11.35;37.06
29941;BME280;16801;53.562;10.038;2023-02-28T17:55:11;103100.59;;;11.44;37.21